Time;durP1;ratioP1;P1;durP2;ratioP2;P2;SDS_P1;SDS_P2;PMS_P1;PMS_P2;Temp;Humidity;BMP_temperature;BMP_pressure;BME280_temperature;BME280_humidity;BME280_pressure;Samples;Min_cycle;Max_cycle;Signal;HPM_P1;HPM_P2
2022/10/15 00:00:33;;;;;;;58.30;36.17;;;12.40;99.90;;;;;;4992551;28;20078;-71
2022/10/15 00:02:58;;;;;;;48.88;31.75;;;12.50;99.90;;;;;;4976160;28;20049;-71
2022/10/15 00:05:24;;;;;;;45.85;32.00;;;12.50;99.90;;;;;;4976059;28;20042;-71
2022/10/15 00:07:49;;;;;;;49.72;32.30;;;12.50;99.90;;;;;;4975988;28;20105;-71
2022/10/15 00:10:16;;;;;;;43.80;31.02;;;12.50;99.90;;;;;;4976062;28;20107;-71
2022/10/15 00:12:41;;;;;;;48.95;32.58;;;12.50;99.90;;;;;;4976254;28;20046;-72
2022/10/15 00:15:08;;;;;;;51.35;33.15;;;12.50;99.90;;;;;;4992132;28;20495;-71
2022/10/15 00:17:34;;;;;;;48.55;32.42;;;12.50;99.90;;;;;;4975827;28;20038;-71
2022/10/15 00:20:01;;;;;;;52.85;33.55;;;12.50;99.90;;;;;;4978818;28;20446;-71
2022/10/15 00:22:27;;;;;;;44.97;31.63;;;12.50;99.90;;;;;;4979667;28;20177;-71
2022/10/15 00:24:52;;;;;;;59.03;35.80;;;12.50;99.90;;;;;;4979636;28;20132;-71
2022/10/15 00:27:18;;;;;;;52.05;33.92;;;12.50;99.90;;;;;;4979779;28;20058;-71
2022/10/15 00:29:43;;;;;;;56.28;36.10;;;12.50;99.90;;;;;;4963521;28;20038;-71
2022/10/15 00:32:09;;;;;;;58.38;37.03;;;12.50;99.90;;;;;;4979463;28;20061;-71
2022/10/15 00:34:34;;;;;;;54.72;34.55;;;12.50;99.90;;;;;;4995627;28;20046;-71
2022/10/15 00:37:00;;;;;;;58.38;36.30;;;12.50;99.90;;;;;;4979395;28;20046;-71
2022/10/15 00:39:26;;;;;;;58.72;35.40;;;12.50;99.90;;;;;;4980055;28;20046;-71
2022/10/15 00:41:51;;;;;;;52.78;35.40;;;12.50;99.90;;;;;;4979346;28;20130;-71
2022/10/15 00:44:20;;;;;;;49.22;34.10;;;12.50;99.90;;;;;;4979258;28;20124;-71
2022/10/15 00:47:03;;;;;;;54.25;36.13;;;12.50;99.90;;;;;;4979452;28;20513;-71
2022/10/15 00:49:43;;;;;;;;;;;12.50;99.90;;;;;;4979500;28;20463;-71
2022/10/15 00:52:18;;;;;;;60.67;38.45;;;12.40;99.90;;;;;;4979135;28;20394;-71
2022/10/15 00:54:53;;;;;;;52.90;35.47;;;12.40;99.90;;;;;;4979072;28;20557;-71
2022/10/15 00:57:19;;;;;;;61.90;39.08;;;12.50;99.90;;;;;;4962813;28;20499;-71
2022/10/15 00:59:51;;;;;;;50.65;35.35;;;12.40;99.90;;;;;;4978946;28;20045;-71
2022/10/15 01:02:18;;;;;;;61.85;37.78;;;12.50;99.90;;;;;;4979022;28;20142;-71
2022/10/15 01:04:45;;;;;;;58.65;37.53;;;12.50;99.90;;;;;;4978882;28;20124;-71
2022/10/15 01:07:11;;;;;;;51.55;35.85;;;12.50;99.90;;;;;;4978997;28;20156;-71
2022/10/15 01:09:37;;;;;;;52.60;35.50;;;12.50;99.90;;;;;;4978810;28;20503;-71
2022/10/15 01:12:05;;;;;;;58.35;37.58;;;12.50;99.90;;;;;;4978728;28;20057;-71
2022/10/15 01:14:43;;;;;;;59.80;38.42;;;12.50;99.90;;;;;;4978786;28;20034;-71
2022/10/15 01:17:46;;;;;;;53.25;35.42;;;12.50;99.90;;;;;;4978498;28;20038;-71
2022/10/15 01:20:30;;;;;;;;;;;12.50;99.90;;;;;;4979335;28;20411;-71
2022/10/15 01:23:20;;;;;;;61.10;38.83;;;12.40;99.90;;;;;;4978572;28;20386;-71
2022/10/15 01:25:48;;;;;;;54.17;36.90;;;12.40;99.90;;;;;;4978519;28;20045;-71
2022/10/15 01:28:24;;;;;;;57.50;37.60;;;12.50;99.90;;;;;;4978756;28;20092;-71
2022/10/15 01:30:59;;;;;;;56.53;36.25;;;12.50;99.90;;;;;;4978182;28;20045;-71
2022/10/15 01:34:01;;;;;;;51.70;35.30;;;12.50;99.90;;;;;;4962410;28;20458;-71
2022/10/15 01:36:51;;;;;;;57.85;37.80;;;12.50;99.90;;;;;;4938957;29;20046;-71
2022/10/15 01:39:31;;;;;;;54.35;36.35;;;12.50;99.90;;;;;;4977222;28;20050;-71
2022/10/15 01:42:05;;;;;;;45.10;33.72;;;12.50;99.90;;;;;;4978482;28;20120;-71
2022/10/15 01:44:37;;;;;;;50.80;35.40;;;12.50;99.90;;;;;;4978157;28;20081;-71
2022/10/15 01:47:06;;;;;;;49.38;34.78;;;12.50;99.90;;;;;;4994632;28;20108;-71
2022/10/15 01:49:40;;;;;;;48.92;34.55;;;12.50;99.90;;;;;;4994262;28;20566;-71
2022/10/15 01:52:12;;;;;;;50.58;36.83;;;12.50;99.90;;;;;;4978036;28;20480;-71
2022/10/15 01:54:39;;;;;;;53.92;34.80;;;12.50;99.90;;;;;;4978020;28;20073;-71
2022/10/15 01:57:06;;;;;;;51.20;36.42;;;12.50;99.90;;;;;;4977939;28;20042;-71
2022/10/15 01:59:33;;;;;;;56.75;37.67;;;12.50;99.90;;;;;;4978152;28;20073;-71
2022/10/15 02:01:59;;;;;;;47.25;33.40;;;12.50;99.90;;;;;;4977809;28;20066;-71
2022/10/15 02:04:28;;;;;;;49.53;32.63;;;12.50;99.90;;;;;;4977832;28;20046;-71
2022/10/15 02:07:10;;;;;;;53.00;35.33;;;12.50;99.90;;;;;;4977749;28;20054;-71
2022/10/15 02:10:00;;;;;;;49.85;34.92;;;12.50;99.90;;;;;;4977767;28;20507;-71
2022/10/15 02:12:44;;;;;;;42.00;31.80;;;12.50;99.90;;;;;;4978480;28;20038;-70
2022/10/15 02:15:25;;;;;;;46.95;32.97;;;12.40;99.90;;;;;;4977599;28;20105;-71
2022/10/15 02:18:01;;;;;;;42.67;31.52;;;12.50;99.90;;;;;;4993616;28;20041;-71
2022/10/15 02:20:51;;;;;;;37.17;29.42;;;12.50;99.90;;;;;;4977530;28;20495;-71
2022/10/15 02:23:25;;;;;;;40.40;30.13;;;12.50;99.90;;;;;;4977503;28;20491;-71
2022/10/15 02:25:53;;;;;;;41.90;30.10;;;12.50;99.90;;;;;;4977618;28;20133;-71
2022/10/15 02:28:22;;;;;;;42.22;30.45;;;12.40;99.90;;;;;;4977308;28;20125;-71
2022/10/15 02:30:50;;;;;;;44.65;31.55;;;12.50;99.90;;;;;;4994767;28;20042;-71
2022/10/15 02:33:17;;;;;;;44.80;32.25;;;12.50;99.90;;;;;;4994855;28;20046;-71
2022/10/15 02:35:44;;;;;;;40.08;30.38;;;12.50;99.90;;;;;;4993989;28;20085;-71
2022/10/15 02:38:13;;;;;;;44.40;30.75;;;12.50;99.90;;;;;;4993552;28;20067;-71
2022/10/15 02:40:41;;;;;;;41.20;29.75;;;12.50;99.90;;;;;;4977077;28;20073;-71
2022/10/15 02:43:09;;;;;;;39.83;30.23;;;12.50;99.90;;;;;;4976482;28;20031;-71
2022/10/15 02:45:36;;;;;;;39.45;30.02;;;12.50;99.90;;;;;;4977358;28;20104;-71
2022/10/15 02:48:04;;;;;;;48.15;32.33;;;12.50;99.90;;;;;;4976943;28;20100;-71
2022/10/15 02:50:32;;;;;;;39.92;29.20;;;12.50;99.90;;;;;;4977737;28;20390;-72
2022/10/15 02:52:58;;;;;;;48.38;31.75;;;12.40;99.90;;;;;;4993095;28;20561;-72
2022/10/15 02:55:24;;;;;;;44.53;30.50;;;12.40;99.90;;;;;;4976771;28;20078;-71
2022/10/15 02:57:49;;;;;;;40.30;29.55;;;12.40;99.90;;;;;;4976807;28;20042;-71
2022/10/15 03:00:15;;;;;;;46.33;31.73;;;12.50;99.90;;;;;;4976855;28;20042;-71
2022/10/15 03:02:41;;;;;;;44.70;29.92;;;12.40;99.90;;;;;;4976765;28;20109;-71
2022/10/15 03:05:07;;;;;;;42.25;31.25;;;12.40;99.90;;;;;;4977037;28;20046;-71
2022/10/15 03:07:32;;;;;;;44.35;30.10;;;12.40;99.90;;;;;;4992764;28;20042;-72
2022/10/15 03:09:58;;;;;;;36.00;29.15;;;12.40;99.90;;;;;;4976726;28;20073;-72
2022/10/15 03:12:24;;;;;;;42.45;28.45;;;12.40;99.90;;;;;;4976660;28;20066;-71
2022/10/15 03:14:51;;;;;;;40.90;29.80;;;12.40;99.90;;;;;;4976528;28;20053;-71
2022/10/15 03:17:16;;;;;;;45.13;30.50;;;12.40;99.90;;;;;;4976404;28;20045;-71
2022/10/15 03:19:42;;;;;;;39.40;29.33;;;12.40;99.90;;;;;;4976581;28;20046;-71
2022/10/15 03:22:08;;;;;;;38.33;28.63;;;12.40;99.90;;;;;;4976797;28;20061;-71
2022/10/15 03:24:33;;;;;;;36.95;26.95;;;12.40;99.90;;;;;;4993879;28;20507;-71
2022/10/15 03:26:59;;;;;;;40.28;27.88;;;12.40;99.90;;;;;;4976442;28;20052;-71
2022/10/15 03:29:24;;;;;;;41.65;28.92;;;12.40;99.90;;;;;;4976358;28;20086;-71
2022/10/15 03:31:50;;;;;;;40.50;28.33;;;12.40;99.90;;;;;;4994350;28;20066;-71
2022/10/15 03:34:16;;;;;;;41.03;28.55;;;12.40;99.90;;;;;;4992648;28;20042;-71
2022/10/15 03:36:42;;;;;;;43.13;30.20;;;12.40;99.90;;;;;;4992499;28;20045;-71
2022/10/15 03:39:07;;;;;;;40.05;28.27;;;12.40;99.90;;;;;;4976283;28;20042;-71
2022/10/15 03:41:33;;;;;;;41.80;29.15;;;12.40;99.90;;;;;;4976444;28;20043;-71
2022/10/15 03:44:04;;;;;;;42.85;29.73;;;12.40;99.90;;;;;;4992695;28;20069;-71
2022/10/15 03:46:29;;;;;;;43.35;30.70;;;12.40;99.90;;;;;;4976464;28;20108;-71
2022/10/15 03:48:55;;;;;;;41.40;28.80;;;12.30;99.90;;;;;;4992371;28;20518;-71
2022/10/15 03:51:21;;;;;;;49.13;30.60;;;12.30;99.90;;;;;;4976264;28;20069;-71
2022/10/15 03:53:46;;;;;;;44.67;30.25;;;12.30;99.90;;;;;;4994677;28;20125;-71
2022/10/15 03:56:12;;;;;;;44.90;30.42;;;12.30;99.90;;;;;;4980217;28;20035;-71
2022/10/15 03:58:38;;;;;;;42.83;31.38;;;12.30;99.90;;;;;;4980019;28;20121;-71
2022/10/15 04:01:08;;;;;;;44.78;30.88;;;12.30;99.90;;;;;;4996287;28;20102;-71
2022/10/15 04:03:34;;;;;;;52.67;33.22;;;12.30;99.90;;;;;;4980020;28;20046;-71
2022/10/15 04:05:59;;;;;;;53.97;33.33;;;12.20;99.90;;;;;;4980014;28;20038;-71
2022/10/15 04:08:25;;;;;;;49.63;32.97;;;12.30;99.90;;;;;;4979905;28;20038;-71
2022/10/15 04:10:50;;;;;;;53.33;33.72;;;12.30;99.90;;;;;;4980149;28;20053;-71
2022/10/15 04:13:16;;;;;;;50.13;34.53;;;12.20;99.90;;;;;;4979835;28;20049;-71
2022/10/15 04:15:41;;;;;;;51.97;33.20;;;12.20;99.90;;;;;;4979751;28;20129;-71
2022/10/15 04:18:08;;;;;;;45.08;31.42;;;12.20;99.90;;;;;;4979643;28;20471;-71
2022/10/15 04:20:34;;;;;;;57.42;36.17;;;12.20;99.90;;;;;;4979946;28;20042;-71
2022/10/15 04:22:59;;;;;;;57.00;35.38;;;12.20;99.90;;;;;;4979957;28;20495;-71
2022/10/15 04:25:25;;;;;;;51.45;33.53;;;12.20;99.90;;;;;;4996181;28;20514;-71
2022/10/15 04:27:52;;;;;;;52.58;35.13;;;12.20;99.90;;;;;;4979804;28;20491;-71
2022/10/15 04:30:18;;;;;;;52.70;37.03;;;12.10;99.90;;;;;;4979520;28;20414;-71
2022/10/15 04:32:43;;;;;;;62.75;38.97;;;12.20;99.90;;;;;;4979761;28;20129;-71
2022/10/15 04:35:09;;;;;;;64.55;39.08;;;12.10;99.90;;;;;;4995608;28;20443;-71
2022/10/15 04:37:35;;;;;;;63.78;38.33;;;12.10;99.90;;;;;;4963248;28;20045;-71
2022/10/15 04:40:02;;;;;;;61.33;38.63;;;12.10;99.90;;;;;;4979338;28;20042;-71
2022/10/15 04:42:28;;;;;;;54.60;37.33;;;12.10;99.90;;;;;;4979348;28;20069;-71
2022/10/15 04:44:54;;;;;;;62.30;40.55;;;12.10;99.90;;;;;;4979290;28;20038;-71
2022/10/15 04:47:19;;;;;;;55.92;39.13;;;12.10;99.90;;;;;;4979211;28;20057;-71
2022/10/15 04:49:45;;;;;;;70.70;42.22;;;12.10;99.90;;;;;;4979269;28;20154;-71
2022/10/15 04:52:10;;;;;;;67.85;40.42;;;12.00;99.90;;;;;;4979174;28;20042;-71
2022/10/15 04:54:36;;;;;;;72.70;42.05;;;12.00;99.90;;;;;;4995213;28;20046;-71
2022/10/15 04:57:03;;;;;;;59.60;40.28;;;12.00;99.90;;;;;;4979330;28;20034;-71
2022/10/15 04:59:28;;;;;;;67.13;42.55;;;12.00;99.90;;;;;;4995397;28;20510;-71
2022/10/15 05:01:54;;;;;;;65.70;42.17;;;12.00;99.90;;;;;;4979221;28;20042;-71
2022/10/15 05:04:19;;;;;;;70.80;42.65;;;12.00;99.90;;;;;;4978401;28;20058;-71
2022/10/15 05:06:45;;;;;;;59.65;39.95;;;11.90;99.90;;;;;;4979170;28;20042;-71
2022/10/15 05:09:10;;;;;;;66.10;41.72;;;11.90;99.90;;;;;;4994995;28;20438;-71
2022/10/15 05:11:39;;;;;;;72.88;42.92;;;11.90;99.90;;;;;;4978786;28;20053;-71
2022/10/15 05:14:06;;;;;;;68.85;40.95;;;11.90;99.90;;;;;;4978635;28;20049;-71
2022/10/15 05:16:32;;;;;;;69.63;43.42;;;11.90;99.90;;;;;;4978668;28;20082;-71
2022/10/15 05:19:04;;;;;;;68.95;43.65;;;11.90;99.90;;;;;;4994722;28;20040;-71
2022/10/15 05:21:30;;;;;;;74.22;43.80;;;11.90;99.90;;;;;;4994860;28;20042;-71
2022/10/15 05:23:57;;;;;;;64.43;41.35;;;11.90;99.90;;;;;;4978540;28;20503;-71
2022/10/15 05:26:24;;;;;;;60.97;39.58;;;12.00;99.90;;;;;;4994729;28;20049;-72
2022/10/15 05:28:51;;;;;;;71.80;43.53;;;11.90;99.90;;;;;;4978619;28;20043;-71
2022/10/15 05:31:21;;;;;;;81.43;46.38;;;11.90;99.90;;;;;;4978452;28;20046;-71
2022/10/15 05:33:50;;;;;;;68.63;43.45;;;12.00;99.90;;;;;;4978361;28;20057;-71
2022/10/15 05:36:20;;;;;;;65.35;40.75;;;12.00;99.90;;;;;;4994791;28;20050;-71
2022/10/15 05:38:47;;;;;;;72.13;43.00;;;12.00;99.90;;;;;;4978144;28;20514;-71
2022/10/15 05:41:13;;;;;;;74.97;46.05;;;11.90;99.90;;;;;;4978256;28;20038;-71
2022/10/15 05:43:39;;;;;;;77.90;45.47;;;11.90;99.90;;;;;;4994421;28;20045;-71
2022/10/15 05:46:04;;;;;;;68.28;43.70;;;11.90;99.90;;;;;;4994408;28;20057;-71
2022/10/15 05:48:30;;;;;;;67.75;44.72;;;12.00;99.90;;;;;;4978193;28;20042;-71
2022/10/15 05:51:09;;;;;;;65.25;41.92;;;11.90;99.90;;;;;;4978131;28;20042;-71
2022/10/15 05:53:35;;;;;;;77.05;46.33;;;12.00;99.90;;;;;;4994176;28;20035;-71
2022/10/15 05:56:01;;;;;;;67.00;42.72;;;11.90;99.90;;;;;;4995692;28;20109;-71
2022/10/15 05:58:28;;;;;;;73.72;43.95;;;11.90;99.90;;;;;;4978125;28;20035;-71
2022/10/15 06:00:59;;;;;;;72.93;43.50;;;11.90;99.90;;;;;;4961847;28;20066;-71
2022/10/15 06:03:25;;;;;;;67.40;42.78;;;12.00;99.90;;;;;;4977869;28;20414;-71
2022/10/15 06:05:51;;;;;;;73.25;44.70;;;11.90;99.90;;;;;;4977818;28;20038;-71
2022/10/15 06:08:17;;;;;;;86.75;48.05;;;11.90;99.90;;;;;;4995156;28;20042;-71
2022/10/15 06:10:43;;;;;;;79.50;46.22;;;12.00;99.90;;;;;;4977691;28;20038;-70
2022/10/15 06:13:09;;;;;;;76.75;45.97;;;12.00;99.90;;;;;;4977678;28;20042;-71
2022/10/15 06:15:42;;;;;;;78.90;45.85;;;12.00;99.90;;;;;;4995260;28;20077;-71
2022/10/15 06:18:09;;;;;;;72.78;44.75;;;12.00;99.90;;;;;;4977365;28;20039;-71
2022/10/15 06:20:36;;;;;;;61.15;41.33;;;12.00;99.90;;;;;;4993749;28;20121;-71
2022/10/15 06:23:03;;;;;;;72.53;45.00;;;12.00;99.90;;;;;;4977481;28;20131;-71
2022/10/15 06:25:29;;;;;;;72.38;43.42;;;12.00;99.90;;;;;;4977731;28;20076;-71
2022/10/15 06:27:54;;;;;;;69.55;43.38;;;12.00;99.90;;;;;;4977370;28;20407;-72
2022/10/15 06:30:20;;;;;;;73.63;43.75;;;12.00;99.90;;;;;;4977381;28;20044;-71
2022/10/15 06:32:50;;;;;;;78.63;46.78;;;12.00;99.90;;;;;;4977562;28;20042;-71
2022/10/15 06:35:18;;;;;;;78.20;44.95;;;12.10;99.90;;;;;;4977114;28;20049;-71
2022/10/15 06:37:43;;;;;;;68.30;43.35;;;12.10;99.90;;;;;;4977072;28;20038;-71
2022/10/15 06:40:10;;;;;;;61.10;42.67;;;12.10;99.90;;;;;;4993609;28;20129;-71
2022/10/15 06:42:36;;;;;;;75.32;45.20;;;12.10;99.90;;;;;;4977402;28;20057;-71
2022/10/15 06:45:02;;;;;;;80.95;46.65;;;12.10;99.90;;;;;;4977375;28;20042;-71
2022/10/15 06:47:28;;;;;;;71.10;44.33;;;12.10;99.90;;;;;;4976991;28;20124;-71
2022/10/15 06:49:53;;;;;;;76.18;44.90;;;12.10;99.90;;;;;;4977278;28;20119;-71
2022/10/15 06:52:19;;;;;;;80.95;46.40;;;12.20;99.90;;;;;;4977276;28;20427;-71
2022/10/15 06:54:45;;;;;;;66.60;43.65;;;12.20;99.90;;;;;;4960738;28;20419;-71
2022/10/15 06:57:11;;;;;;;67.18;42.65;;;12.30;99.90;;;;;;4993276;28;20074;-71
2022/10/15 06:59:36;;;;;;;65.82;42.17;;;12.30;99.90;;;;;;4993091;28;20545;-71
2022/10/15 07:02:02;;;;;;;68.00;42.78;;;12.30;99.90;;;;;;4977074;28;20041;-71
2022/10/15 07:04:28;;;;;;;72.18;42.65;;;12.30;99.90;;;;;;4993188;28;20496;-71
2022/10/15 07:06:53;;;;;;;68.18;42.65;;;12.40;99.90;;;;;;4977034;28;20395;-71
2022/10/15 07:09:19;;;;;;;69.72;43.00;;;12.40;99.90;;;;;;4976645;28;20518;-71
2022/10/15 07:11:45;;;;;;;71.32;43.80;;;12.40;99.90;;;;;;4976619;28;20125;-71
2022/10/15 07:14:11;;;;;;;60.08;40.72;;;12.50;99.90;;;;;;4992930;28;20038;-71
2022/10/15 07:16:38;;;;;;;64.35;42.00;;;12.50;99.90;;;;;;4992691;28;20419;-71
2022/10/15 07:19:04;;;;;;;57.80;40.05;;;12.60;99.90;;;;;;4976556;28;20121;-71
2022/10/15 07:21:30;;;;;;;70.53;44.30;;;12.60;99.90;;;;;;4992940;28;20034;-71
2022/10/15 07:23:55;;;;;;;67.22;42.25;;;12.60;99.90;;;;;;4976482;28;20084;-71
2022/10/15 07:26:21;;;;;;;61.08;39.85;;;12.70;99.90;;;;;;4976520;28;20062;-71
2022/10/15 07:28:47;;;;;;;66.28;41.03;;;12.70;99.90;;;;;;4976101;28;20065;-71
2022/10/15 07:31:12;;;;;;;61.25;39.05;;;12.80;99.90;;;;;;4976493;28;20043;-71
2022/10/15 07:33:38;;;;;;;71.78;43.50;;;12.80;99.90;;;;;;4976291;28;20039;-71
2022/10/15 07:36:08;;;;;;;64.38;40.67;;;12.90;99.90;;;;;;4976349;28;20077;-71
2022/10/15 07:38:35;;;;;;;66.40;41.78;;;12.90;99.90;;;;;;4976557;28;20038;-71
2022/10/15 07:41:02;;;;;;;66.05;41.97;;;13.00;99.90;;;;;;4976335;28;20046;-71
2022/10/15 07:43:28;;;;;;;62.22;41.45;;;13.00;99.90;;;;;;4992477;28;20049;-71
2022/10/15 07:45:54;;;;;;;58.28;39.63;;;13.00;99.90;;;;;;4992449;28;20042;-70
2022/10/15 07:48:19;;;;;;;58.80;38.95;;;13.00;99.90;;;;;;4976208;28;20051;-71
2022/10/15 07:50:45;;;;;;;63.40;41.78;;;13.10;99.90;;;;;;4976219;28;20034;-71
2022/10/15 07:53:11;;;;;;;65.15;43.28;;;13.00;99.90;;;;;;4976310;28;20035;-71
2022/10/15 07:55:36;;;;;;;67.30;42.15;;;13.00;99.90;;;;;;4992383;28;20050;-70
2022/10/15 07:58:04;;;;;;;63.92;40.65;;;13.00;99.90;;;;;;4976021;28;20406;-71
2022/10/15 08:00:31;;;;;;;58.90;41.15;;;13.00;99.90;;;;;;4976141;28;20046;-72
2022/10/15 08:02:57;;;;;;;62.42;41.65;;;13.10;99.90;;;;;;4976340;28;20039;-71
2022/10/15 08:05:22;;;;;;;57.00;40.22;;;13.10;99.90;;;;;;4992550;28;20081;-71
2022/10/15 08:07:48;;;;;;;64.20;40.63;;;13.00;99.90;;;;;;4976271;28;20134;-71
2022/10/15 08:10:14;;;;;;;62.85;41.40;;;13.00;99.90;;;;;;4993512;28;20484;-72
2022/10/15 08:12:40;;;;;;;65.25;42.35;;;13.10;99.90;;;;;;4975979;28;20046;-71
2022/10/15 08:15:06;;;;;;;61.42;41.55;;;13.20;99.90;;;;;;4975940;28;20416;-70
2022/10/15 08:17:32;;;;;;;57.72;40.53;;;13.30;99.90;;;;;;4975936;28;20042;-71
2022/10/15 08:19:57;;;;;;;62.92;42.58;;;13.40;99.90;;;;;;4975962;28;20034;-71
2022/10/15 08:22:23;;;;;;;59.42;40.10;;;13.30;99.90;;;;;;4976233;28;20039;-71
2022/10/15 08:24:48;;;;;;;53.80;37.60;;;13.30;99.90;;;;;;4992340;28;20050;-71
2022/10/15 08:27:14;;;;;;;57.70;39.90;;;13.40;99.90;;;;;;4992285;28;20065;-70
2022/10/15 08:29:39;;;;;;;55.97;40.47;;;13.40;99.90;;;;;;4992118;28;20414;-71
2022/10/15 08:32:05;;;;;;;61.55;43.13;;;13.40;99.90;;;;;;4975883;28;20101;-72
2022/10/15 08:34:30;;;;;;;59.80;42.58;;;13.40;99.90;;;;;;4992084;28;20034;-72
2022/10/15 08:36:56;;;;;;;56.78;39.97;;;13.50;99.90;;;;;;4975868;28;20459;-72
2022/10/15 08:39:22;;;;;;;59.17;41.47;;;13.50;99.90;;;;;;4976061;28;20034;-71
2022/10/15 08:41:56;;;;;;;62.72;42.85;;;13.60;99.90;;;;;;4963209;28;20384;-71
2022/10/15 08:44:43;;;;;;;55.38;40.63;;;13.60;99.90;;;;;;4979569;28;20129;-71
2022/10/15 08:47:36;;;;;;;60.17;40.72;;;13.60;99.90;;;;;;4979159;28;20054;-71
2022/10/15 08:50:41;;;;;;;62.92;42.80;;;13.50;99.90;;;;;;4995675;28;20112;-71
2022/10/15 08:53:13;;;;;;;57.75;39.80;;;13.50;99.90;;;;;;4979182;28;20042;-71
2022/10/15 08:55:41;;;;;;;60.85;41.53;;;13.50;99.90;;;;;;4979115;28;20049;-71
2022/10/15 08:58:13;;;;;;;58.10;42.58;;;13.50;99.90;;;;;;4996446;28;20046;-71
2022/10/15 09:00:55;;;;;;;59.40;42.17;;;13.50;99.90;;;;;;4979052;28;20039;-71
2022/10/15 09:03:47;;;;;;;61.42;41.97;;;13.50;99.90;;;;;;4995206;28;20407;-71
2022/10/15 09:06:38;;;;;;;65.15;42.75;;;13.50;99.90;;;;;;4978866;28;20046;-71
2022/10/15 09:09:29;;;;;;;67.97;44.97;;;13.50;99.90;;;;;;4995048;28;20046;-71
2022/10/15 09:12:20;;;;;;;65.80;42.25;;;13.40;99.90;;;;;;4978858;28;20042;-71
2022/10/15 09:14:46;;;;;;;63.15;42.15;;;13.50;99.90;;;;;;4978799;28;20500;-71
2022/10/15 09:17:22;;;;;;;68.90;41.60;;;13.40;99.90;;;;;;4996350;28;20415;-70
2022/10/15 09:19:54;;;;;;;63.90;39.17;;;13.40;99.90;;;;;;4978948;28;20092;-72
2022/10/15 09:22:28;;;;;;;60.83;36.40;;;13.40;99.90;;;;;;4978575;28;20459;-72
2022/10/15 09:24:55;;;;;;;69.78;39.63;;;13.40;99.90;;;;;;4978798;28;20817;-71
2022/10/15 09:27:33;;;;;;;75.82;42.70;;;13.30;99.90;;;;;;4978455;28;20050;-70
2022/10/15 09:30:11;;;;;;;70.55;40.90;;;13.30;99.90;;;;;;4978716;28;20042;-71
2022/10/15 09:33:02;;;;;;;67.20;38.58;;;13.30;99.90;;;;;;4994720;28;20038;-71
2022/10/15 09:35:46;;;;;;;75.70;41.17;;;13.20;99.90;;;;;;4978351;28;20503;-71
2022/10/15 09:38:38;;;;;;;76.53;39.63;;;13.20;99.90;;;;;;4978368;28;20558;-71
2022/10/15 09:41:28;;;;;;;67.70;38.08;;;13.30;99.90;;;;;;4962192;28;20146;-71
2022/10/15 09:43:57;;;;;;;65.95;38.17;;;13.20;99.90;;;;;;4996028;28;20081;-71
2022/10/15 09:46:23;;;;;;;60.63;36.28;;;13.20;99.90;;;;;;4978605;28;20050;-71
2022/10/15 09:48:48;;;;;;;61.20;35.75;;;13.30;99.90;;;;;;4978102;28;20038;-71
2022/10/15 09:51:38;;;;;;;57.75;34.85;;;13.30;99.90;;;;;;4978012;28;20100;-71
2022/10/15 09:54:39;;;;;;;53.97;32.85;;;13.40;99.90;;;;;;4978062;28;20057;-70
2022/10/15 09:57:09;;;;;;;55.22;33.25;;;13.40;99.90;;;;;;4971166;28;20050;-70
2022/10/15 09:59:34;;;;;;;56.33;31.77;;;13.30;99.90;;;;;;4977917;28;20039;-70
2022/10/15 10:02:03;;;;;;;44.38;28.55;;;13.40;99.90;;;;;;4977907;28;20131;-70
2022/10/15 10:04:31;;;;;;;38.38;26.27;;;13.40;99.90;;;;;;4978148;28;20068;-70
2022/10/15 10:07:01;;;;;;;40.35;26.27;;;13.40;99.90;;;;;;4995247;28;20042;-70
2022/10/15 10:09:37;;;;;;;35.33;25.23;;;13.50;99.90;;;;;;4977650;28;20446;-70
2022/10/15 10:12:06;;;;;;;33.17;24.10;;;13.50;99.90;;;;;;4977654;28;20049;-70
2022/10/15 10:14:43;;;;;;;34.83;24.35;;;13.50;99.90;;;;;;4977548;28;20423;-70
2022/10/15 10:17:17;;;;;;;38.35;25.65;;;13.60;99.90;;;;;;4995039;28;20092;-70
2022/10/15 10:19:44;;;;;;;33.60;24.08;;;13.60;99.90;;;;;;4977836;28;20046;-70
2022/10/15 10:22:18;;;;;;;35.47;23.90;;;13.60;99.90;;;;;;4977572;28;20046;-70
2022/10/15 10:24:47;;;;;;;34.35;23.58;;;13.70;99.90;;;;;;4977478;28;20058;-70
2022/10/15 10:27:26;;;;;;;34.20;24.05;;;13.70;99.90;;;;;;4977367;28;20495;-70
2022/10/15 10:29:59;;;;;;;32.33;23.60;;;13.80;99.90;;;;;;4977644;28;20129;-70
2022/10/15 10:32:37;;;;;;;31.85;22.80;;;13.80;99.90;;;;;;4977664;28;20109;-70
2022/10/15 10:35:04;;;;;;;32.92;23.73;;;13.80;99.90;;;;;;4977218;28;20109;-70
2022/10/15 10:37:41;;;;;;;28.20;22.45;;;13.90;99.90;;;;;;4977345;28;20483;-70
2022/10/15 10:40:26;;;;;;;29.98;23.60;;;14.00;99.90;;;;;;4977276;28;20074;-70
2022/10/15 10:43:15;;;;;;;25.88;21.35;;;14.20;99.90;;;;;;4977192;28;20047;-70
2022/10/15 10:46:00;;;;;;;23.30;19.48;;;15.40;99.90;;;;;;4977147;28;20050;-70
2022/10/15 10:48:38;;;;;;;21.77;18.38;;;17.40;99.90;;;;;;4977314;28;20042;-70
2022/10/15 10:51:16;;;;;;;22.98;19.40;;;19.10;99.90;;;;;;4977279;28;20050;-70
2022/10/15 10:53:54;;;;;;;25.05;20.40;;;19.60;99.90;;;;;;4977108;28;20116;-70
2022/10/15 10:56:23;;;;;;;23.73;20.05;;;18.80;99.90;;;;;;4977188;28;20057;-70
2022/10/15 10:59:00;;;;;;;22.95;19.08;;;18.20;99.90;;;;;;4976759;28;20042;-70
2022/10/15 11:01:26;;;;;;;23.90;19.52;;;17.50;99.90;;;;;;4977158;28;20105;-70
2022/10/15 11:03:52;;;;;;;25.23;19.23;;;17.10;99.90;;;;;;4976325;28;20077;-70
2022/10/15 11:06:51;;;;;;;24.85;20.63;;;16.80;99.90;;;;;;4976998;28;20070;-70
2022/10/15 11:09:35;;;;;;;25.95;20.05;;;16.50;99.90;;;;;;4977512;28;20046;-70
2022/10/15 11:12:54;;;;;;;22.35;19.55;;;16.30;99.90;;;;;;4994133;28;20065;-70
2022/10/15 11:15:46;;;;;;;24.90;20.15;;;16.10;99.90;;;;;;4961793;28;20076;-70
2022/10/15 11:18:17;;;;;;;25.70;20.08;;;16.00;99.90;;;;;;4993837;28;20042;-70
2022/10/15 11:21:41;;;;;;;22.80;18.80;;;15.90;99.90;;;;;;4976806;28;20070;-70
2022/10/15 11:24:29;;;;;;;23.17;19.00;;;15.80;99.90;;;;;;4937490;29;20047;-70
2022/10/15 11:27:11;;;;;;;22.40;18.58;;;15.70;99.90;;;;;;4976797;28;20541;-70
2022/10/15 11:29:52;;;;;;;23.73;18.75;;;15.60;99.90;;;;;;4976535;28;20057;-70
2022/10/15 11:32:55;;;;;;;22.75;18.00;;;15.60;99.90;;;;;;4976485;28;20050;-70
2022/10/15 11:35:45;;;;;;;20.83;16.60;;;15.50;99.90;;;;;;4976401;28;20050;-70
2022/10/15 11:38:24;;;;;;;19.40;16.50;;;15.50;99.90;;;;;;4992738;28;20049;-70
2022/10/15 11:41:10;;;;;;;20.52;17.20;;;15.40;99.90;;;;;;4976377;28;20044;-70
2022/10/15 11:43:55;;;;;;;21.45;16.60;;;15.30;99.90;;;;;;4976620;28;20143;-70
2022/10/15 11:46:46;;;;;;;24.58;17.02;;;15.30;99.90;;;;;;4976318;28;20078;-70
2022/10/15 11:49:47;;;;;;;22.88;16.67;;;15.40;99.90;;;;;;4976183;28;20042;-70
2022/10/15 11:52:36;;;;;;;19.55;16.50;;;15.40;99.90;;;;;;4976592;28;20403;-69
2022/10/15 11:55:16;;;;;;;20.88;17.80;;;15.30;99.90;;;;;;4976191;28;20081;-72
2022/10/15 11:57:44;;;;;;;21.25;17.30;;;15.30;99.90;;;;;;4992322;28;20053;-70
2022/10/15 12:00:24;;;;;;;23.05;17.48;;;15.30;99.90;;;;;;4976390;28;20101;-70
2022/10/15 12:02:52;;;;;;;22.98;18.25;;;15.40;99.90;;;;;;4976255;28;20121;-70
2022/10/15 12:05:40;;;;;;;21.73;16.90;;;15.40;99.90;;;;;;4992284;28;20530;-70
2022/10/15 12:08:09;;;;;;;21.50;17.88;;;15.40;99.90;;;;;;4976066;28;20511;-70
2022/10/15 12:11:05;;;;;;;24.10;17.48;;;15.40;99.90;;;;;;4976083;28;20149;-70
2022/10/15 12:13:41;;;;;;;22.40;17.92;;;15.50;99.90;;;;;;4992295;28;20046;-70
2022/10/15 12:16:13;;;;;;;21.52;17.63;;;15.50;99.90;;;;;;4978846;28;20038;-70
2022/10/15 12:18:49;;;;;;;23.65;18.60;;;15.40;99.90;;;;;;4979704;28;20042;-70
2022/10/15 12:21:55;;;;;;;23.38;19.08;;;15.40;99.90;;;;;;4979726;28;20050;-71
2022/10/15 12:24:36;;;;;;;21.08;17.73;;;15.40;99.90;;;;;;4960726;28;20058;-71
2022/10/15 12:27:22;;;;;;;21.13;17.40;;;15.40;99.90;;;;;;4979687;28;20136;-70
2022/10/15 12:30:10;;;;;;;20.00;16.95;;;15.50;99.90;;;;;;4995843;28;20088;-71
2022/10/15 12:32:47;;;;;;;22.25;18.23;;;15.40;99.90;;;;;;4979545;28;20050;-71
2022/10/15 12:35:13;;;;;;;23.63;18.52;;;15.50;99.90;;;;;;4979484;28;20035;-71
2022/10/15 12:37:40;;;;;;;20.70;17.38;;;15.40;99.90;;;;;;4979707;28;20039;-71
2022/10/15 12:40:30;;;;;;;22.23;17.38;;;15.40;99.90;;;;;;4995641;28;20050;-71
2022/10/15 12:43:11;;;;;;;24.95;19.92;;;15.40;99.90;;;;;;4979373;28;20039;-71
2022/10/15 12:45:40;;;;;;;23.25;18.45;;;15.40;99.90;;;;;;4979367;28;20070;-71
2022/10/15 12:48:17;;;;;;;25.17;19.00;;;15.30;99.90;;;;;;4979204;28;20129;-71
2022/10/15 12:50:43;;;;;;;28.90;19.95;;;15.30;99.90;;;;;;4963135;28;20521;-71